createdAt,value
2019-02-15T00:01:24.428Z,18.00
2019-02-15T00:03:53.148Z,16.77
2019-02-15T00:06:21.879Z,17.70
2019-02-15T00:08:50.598Z,18.75
2019-02-15T00:11:19.370Z,16.80
2019-02-15T00:13:48.113Z,17.45
2019-02-15T00:16:16.874Z,17.37
2019-02-15T00:19:04.678Z,16.90
2019-02-15T00:21:40.022Z,18.27
2019-02-15T00:24:08.802Z,17.85
2019-02-15T00:26:40.987Z,17.60
2019-02-15T00:29:09.772Z,16.60
2019-02-15T00:31:39.498Z,18.40
2019-02-15T00:34:08.738Z,17.52
2019-02-15T00:36:37.502Z,16.93
2019-02-15T00:39:06.825Z,17.25
2019-02-15T00:41:35.634Z,18.90
2019-02-15T00:44:04.499Z,17.23
2019-02-15T00:46:53.741Z,17.57
2019-02-15T00:49:29.226Z,18.57
2019-02-15T00:52:04.297Z,17.85
2019-02-15T00:54:57.967Z,19.17
2019-02-15T00:57:49.004Z,18.35
2019-02-15T01:00:33.334Z,18.95
2019-02-15T01:03:19.835Z,18.32
2019-02-15T01:06:02.522Z,16.75
2019-02-15T01:08:59.728Z,17.35
2019-02-15T01:11:40.443Z,16.32
2019-02-15T01:14:09.245Z,18.07
2019-02-15T01:16:38.019Z,18.95
2019-02-15T01:19:06.768Z,17.07
2019-02-15T01:21:35.549Z,20.60
2019-02-15T01:24:04.421Z,19.15
2019-02-15T01:26:40.552Z,16.90
2019-02-15T01:29:26.102Z,18.87
2019-02-15T01:32:14.782Z,18.55
2019-02-15T01:35:02.616Z,17.82
2019-02-15T01:37:40.850Z,17.85
2019-02-15T01:40:34.541Z,16.25
2019-02-15T01:43:28.934Z,14.93
2019-02-15T01:46:32.039Z,13.50
2019-02-15T01:49:00.738Z,14.78
2019-02-15T01:51:29.442Z,12.80
2019-02-15T01:53:58.172Z,13.38
2019-02-15T01:56:26.896Z,13.88
2019-02-15T01:58:55.602Z,12.95
2019-02-15T02:01:26.434Z,14.63
2019-02-15T02:03:55.443Z,15.32
2019-02-15T02:06:24.214Z,16.42
2019-02-15T02:08:52.965Z,16.35
2019-02-15T02:11:21.760Z,15.45
2019-02-15T02:13:50.660Z,16.07
2019-02-15T02:16:19.393Z,14.10
2019-02-15T02:18:48.152Z,14.75
2019-02-15T02:21:17.010Z,14.60
2019-02-15T02:23:45.838Z,15.43
2019-02-15T02:26:14.542Z,12.98
2019-02-15T02:28:43.347Z,13.30
2019-02-15T02:31:12.105Z,11.05
2019-02-15T02:33:41.773Z,11.80
2019-02-15T02:36:10.482Z,10.95
2019-02-15T02:38:39.206Z,10.48
2019-02-15T02:41:07.910Z,11.65
2019-02-15T02:43:39.173Z,12.10
2019-02-15T02:46:07.993Z,12.00
2019-02-15T02:48:36.753Z,13.03
2019-02-15T02:51:05.683Z,13.70
2019-02-15T02:53:34.522Z,12.60
2019-02-15T02:56:03.273Z,15.18
2019-02-15T02:58:36.851Z,13.10
2019-02-15T03:01:05.639Z,12.47
2019-02-15T03:03:34.347Z,14.73
2019-02-15T03:06:06.373Z,18.05
2019-02-15T03:08:35.208Z,15.63
2019-02-15T03:11:04.061Z,15.28
2019-02-15T03:13:32.961Z,15.68
2019-02-15T03:16:02.109Z,15.53
2019-02-15T03:18:30.871Z,16.05
2019-02-15T03:20:59.602Z,16.30
2019-02-15T03:23:28.354Z,14.83
2019-02-15T03:25:57.176Z,14.40
2019-02-15T03:28:26.257Z,14.07
2019-02-15T03:30:55.000Z,13.62
2019-02-15T03:33:23.762Z,13.68
2019-02-15T03:35:58.501Z,14.38
2019-02-15T03:38:38.262Z,13.38
2019-02-15T03:41:23.776Z,14.35
2019-02-15T03:43:52.563Z,13.85
2019-02-15T03:46:21.317Z,13.25
2019-02-15T03:48:50.155Z,13.65
2019-02-15T03:51:18.983Z,15.28
2019-02-15T03:53:47.728Z,13.53
2019-02-15T03:56:16.558Z,12.15
2019-02-15T03:58:45.277Z,13.35
2019-02-15T04:01:14.549Z,11.65
2019-02-15T04:03:43.306Z,11.78
2019-02-15T04:06:12.024Z,11.73
2019-02-15T04:08:40.820Z,13.50
2019-02-15T04:11:09.616Z,13.25
2019-02-15T04:13:38.336Z,12.13
2019-02-15T04:16:07.107Z,12.15
2019-02-15T04:18:35.942Z,11.70
2019-02-15T04:21:05.190Z,12.93
2019-02-15T04:23:34.098Z,12.53
2019-02-15T04:26:02.833Z,13.55
2019-02-15T04:28:31.540Z,13.13
2019-02-15T04:31:00.278Z,13.72
2019-02-15T04:33:29.060Z,13.43
2019-02-15T04:35:57.782Z,12.13
2019-02-15T04:38:26.538Z,12.58
2019-02-15T04:40:56.212Z,12.33
2019-02-15T04:43:24.936Z,12.37
2019-02-15T04:45:53.740Z,13.28
2019-02-15T04:48:22.484Z,12.05
2019-02-15T04:50:51.198Z,12.53
2019-02-15T04:53:19.944Z,12.40
2019-02-15T04:55:48.683Z,12.33
2019-02-15T04:58:17.479Z,12.47
2019-02-15T05:00:46.212Z,14.33
2019-02-15T05:03:14.973Z,12.13
2019-02-15T05:05:43.682Z,13.53
2019-02-15T05:08:12.421Z,13.18
2019-02-15T05:10:41.727Z,13.50
2019-02-15T05:13:10.461Z,12.95
2019-02-15T05:15:39.281Z,14.33
2019-02-15T05:18:08.045Z,14.40
2019-02-15T05:20:36.751Z,14.33
2019-02-15T05:23:05.807Z,13.18
2019-02-15T05:25:34.537Z,14.75
2019-02-15T05:28:03.271Z,14.40
2019-02-15T05:30:32.030Z,15.70
2019-02-15T05:33:00.771Z,15.93
2019-02-15T05:35:29.498Z,17.37
2019-02-15T05:37:58.598Z,15.28
2019-02-15T05:40:27.330Z,16.65
2019-02-15T05:42:56.036Z,13.00
2019-02-15T05:45:24.862Z,16.25
2019-02-15T05:47:53.646Z,18.73
2019-02-15T05:50:22.653Z,19.90
2019-02-15T05:52:51.431Z,21.12
2019-02-15T05:55:20.240Z,20.43
2019-02-15T05:57:51.357Z,20.70
2019-02-15T06:00:20.087Z,21.30
2019-02-15T06:02:48.833Z,20.05
2019-02-15T06:05:17.537Z,19.77
2019-02-15T06:07:46.265Z,20.65
2019-02-15T06:10:15.009Z,19.05
2019-02-15T06:12:43.803Z,15.60
2019-02-15T06:15:15.227Z,14.38
2019-02-15T06:17:43.010Z,15.72
2019-02-15T06:20:11.754Z,16.10
2019-02-15T06:22:40.687Z,16.73
2019-02-15T06:25:09.415Z,14.15
2019-02-15T06:27:38.153Z,16.25
2019-02-15T06:30:07.691Z,15.78
2019-02-15T06:32:36.557Z,14.30
2019-02-15T06:35:05.910Z,14.90
2019-02-15T06:37:37.529Z,13.55
2019-02-15T06:40:06.443Z,12.50
2019-02-15T06:42:35.334Z,12.63
2019-02-15T06:45:04.682Z,11.85
2019-02-15T06:47:35.228Z,12.45
2019-02-15T06:50:23.576Z,12.35
2019-02-15T06:52:52.452Z,12.82
2019-02-15T06:55:21.354Z,11.50
2019-02-15T06:57:51.298Z,11.75
2019-02-15T07:00:36.126Z,12.13
2019-02-15T07:03:11.513Z,12.47
2019-02-15T07:05:40.242Z,13.95
2019-02-15T07:08:08.962Z,15.88
2019-02-15T07:10:37.716Z,15.20
2019-02-15T07:13:25.787Z,14.45
2019-02-15T07:15:54.518Z,13.03
2019-02-15T07:18:23.254Z,13.18
2019-02-15T07:20:54.043Z,12.45
2019-02-15T07:23:22.777Z,12.37
2019-02-15T07:25:51.489Z,12.65
2019-02-15T07:28:20.513Z,11.15
2019-02-15T07:30:49.290Z,11.08
2019-02-15T07:33:18.078Z,10.82
2019-02-15T07:35:46.886Z,11.33
2019-02-15T07:38:34.954Z,10.53
2019-02-15T07:41:03.716Z,10.40
2019-02-15T07:43:32.456Z,11.22
2019-02-15T07:46:01.307Z,10.53
2019-02-15T07:48:30.114Z,9.90
2019-02-15T07:50:58.921Z,10.18
2019-02-15T07:53:27.670Z,11.28
2019-02-15T07:55:57.907Z,10.23
2019-02-15T07:58:26.665Z,10.28
2019-02-15T08:00:55.403Z,10.08
2019-02-15T08:03:24.105Z,9.95
2019-02-15T08:05:52.855Z,8.80
2019-02-15T08:08:21.621Z,8.98
2019-02-15T08:10:50.343Z,9.43
2019-02-15T08:13:22.201Z,9.50
2019-02-15T08:15:52.218Z,8.65
2019-02-15T08:18:21.166Z,8.50
2019-02-15T08:20:49.952Z,8.48
2019-02-15T08:23:18.759Z,9.05
2019-02-15T08:25:47.490Z,8.60
2019-02-15T08:28:19.226Z,8.48
2019-02-15T08:30:48.121Z,8.05
2019-02-15T08:33:16.830Z,7.55
2019-02-15T08:35:45.545Z,8.00
2019-02-15T08:38:14.321Z,7.80
2019-02-15T08:40:43.194Z,7.65
2019-02-15T08:43:11.925Z,8.33
2019-02-15T08:45:40.742Z,7.53
2019-02-15T08:48:09.538Z,8.20
2019-02-15T08:50:38.259Z,7.62
2019-02-15T08:53:09.550Z,7.47
2019-02-15T08:55:38.386Z,8.18
2019-02-15T08:58:07.102Z,7.62
2019-02-15T09:00:35.830Z,7.58
2019-02-15T09:03:05.739Z,7.67
2019-02-15T09:05:34.458Z,7.72
2019-02-15T09:08:03.206Z,7.55
2019-02-15T09:10:31.985Z,8.03
2019-02-15T09:13:00.695Z,7.70
2019-02-15T09:15:29.420Z,7.72
2019-02-15T09:17:58.206Z,8.45
2019-02-15T09:20:26.950Z,7.45
2019-02-15T09:22:55.762Z,7.72
2019-02-15T09:25:24.538Z,8.30
2019-02-15T09:28:14.318Z,7.55
2019-02-15T09:30:44.810Z,7.37
2019-02-15T09:33:15.082Z,7.05
2019-02-15T09:35:43.955Z,7.07
2019-02-15T09:38:12.732Z,6.97
2019-02-15T09:40:41.522Z,6.77
2019-02-15T09:43:10.358Z,7.43
2019-02-15T09:45:39.170Z,7.10
2019-02-15T09:48:08.893Z,6.83
2019-02-15T09:50:37.667Z,7.20
2019-02-15T09:53:08.052Z,7.20
2019-02-15T09:55:36.843Z,6.97
2019-02-15T09:58:05.770Z,6.47
2019-02-15T10:00:34.523Z,7.13
2019-02-15T10:03:03.426Z,7.17
2019-02-15T10:05:32.146Z,6.90
2019-02-15T10:08:00.986Z,7.40
2019-02-15T10:10:29.790Z,6.93
2019-02-15T10:12:58.510Z,6.57
2019-02-15T10:15:27.234Z,6.63
2019-02-15T10:17:55.975Z,6.93
2019-02-15T10:20:24.732Z,6.30
2019-02-15T10:22:53.491Z,6.53
2019-02-15T10:25:22.223Z,7.10
2019-02-15T10:27:50.954Z,6.83
2019-02-15T10:30:19.715Z,6.43
2019-02-15T10:32:48.502Z,6.23
2019-02-15T10:35:17.217Z,6.33
2019-02-15T10:37:46.037Z,6.50
2019-02-15T10:40:15.030Z,6.57
2019-02-15T10:42:43.778Z,6.13
2019-02-15T10:45:12.830Z,6.07
2019-02-15T10:47:41.591Z,6.30
2019-02-15T10:50:10.409Z,6.77
2019-02-15T10:52:40.201Z,6.50
2019-02-15T10:55:09.023Z,6.60
2019-02-15T10:57:37.737Z,5.83
2019-02-15T11:00:09.281Z,6.10
2019-02-15T11:02:38.212Z,6.07
2019-02-15T11:05:07.085Z,6.30
2019-02-15T11:07:35.829Z,6.63
2019-02-15T11:10:05.319Z,6.17
2019-02-15T11:12:34.062Z,6.90
2019-02-15T11:15:02.918Z,5.83
2019-02-15T11:17:31.646Z,6.43
2019-02-15T11:20:00.428Z,6.00
2019-02-15T11:22:29.230Z,5.83
2019-02-15T11:24:57.942Z,6.13
2019-02-15T11:27:27.706Z,6.00
2019-02-15T11:29:56.453Z,6.40
2019-02-15T11:32:25.336Z,5.77
2019-02-15T11:34:54.134Z,5.73
2019-02-15T11:37:22.944Z,6.37
2019-02-15T11:39:51.730Z,6.00
2019-02-15T11:42:20.483Z,6.10
2019-02-15T11:44:49.261Z,6.10
2019-02-15T11:47:18.027Z,6.23
2019-02-15T11:49:46.981Z,6.03
2019-02-15T11:52:15.810Z,5.90
2019-02-15T11:54:44.635Z,5.50
2019-02-15T11:57:13.344Z,5.60
2019-02-15T11:59:44.755Z,5.47
2019-02-15T12:02:13.598Z,6.33
2019-02-15T12:04:42.360Z,5.50
2019-02-15T12:07:11.130Z,5.90
2019-02-15T12:09:40.968Z,6.07
2019-02-15T12:12:10.991Z,6.10
2019-02-15T12:14:40.085Z,6.50
2019-02-15T12:17:12.873Z,5.90
2019-02-15T12:19:41.656Z,5.93
2019-02-15T12:22:12.258Z,5.20
2019-02-15T12:24:41.107Z,6.13
2019-02-15T12:27:11.918Z,5.87
2019-02-15T12:29:40.702Z,5.60
2019-02-15T12:32:09.546Z,6.20
2019-02-15T12:34:38.272Z,5.63
2019-02-15T12:37:07.011Z,5.80
2019-02-15T12:39:35.747Z,6.17
2019-02-15T12:42:04.490Z,5.80
2019-02-15T12:44:33.217Z,5.77
2019-02-15T12:47:02.030Z,6.20
2019-02-15T12:49:30.759Z,5.67
2019-02-15T12:51:59.475Z,5.73
2019-02-15T12:54:28.224Z,6.10
2019-02-15T12:56:56.938Z,5.60
2019-02-15T12:59:25.651Z,5.23
2019-02-15T13:01:54.394Z,5.23
2019-02-15T13:04:23.198Z,4.90
2019-02-15T13:06:51.905Z,5.40
2019-02-15T13:09:20.627Z,5.80
2019-02-15T13:11:49.422Z,4.90
2019-02-15T13:14:18.155Z,5.47
2019-02-15T13:16:46.891Z,5.60
2019-02-15T13:19:15.612Z,5.30
2019-02-15T13:21:44.330Z,5.20
2019-02-15T13:24:13.070Z,5.33
2019-02-15T13:26:41.791Z,5.30
2019-02-15T13:29:10.519Z,5.33
2019-02-15T13:31:48.890Z,6.00
2019-02-15T13:34:17.778Z,5.27
2019-02-15T13:36:47.291Z,5.47
2019-02-15T13:39:16.088Z,5.13
2019-02-15T13:41:44.830Z,6.17
2019-02-15T13:44:13.630Z,5.83
2019-02-15T13:46:42.520Z,6.40
2019-02-15T13:49:12.992Z,5.90
2019-02-15T13:51:41.943Z,5.97
2019-02-15T13:54:10.920Z,6.17
2019-02-15T13:56:40.628Z,6.43
2019-02-15T13:59:09.984Z,6.27
2019-02-15T14:01:39.381Z,6.63
2019-02-15T14:04:08.406Z,6.17
2019-02-15T14:06:37.201Z,5.37
2019-02-15T14:09:05.995Z,6.00
2019-02-15T14:11:34.732Z,6.43
2019-02-15T14:14:03.463Z,6.93
2019-02-15T14:16:32.461Z,6.70
2019-02-15T14:19:01.222Z,6.40
2019-02-15T14:21:30.041Z,6.33
2019-02-15T14:23:58.742Z,6.43
2019-02-15T14:26:27.522Z,6.90
2019-02-15T14:28:56.466Z,7.07
2019-02-15T14:31:25.207Z,6.93
2019-02-15T14:33:54.054Z,7.53
2019-02-15T14:36:22.895Z,7.23
2019-02-15T14:38:53.185Z,6.67
2019-02-15T14:41:21.974Z,6.30
2019-02-15T14:43:50.691Z,7.47
2019-02-15T14:46:19.414Z,7.33
2019-02-15T14:48:48.201Z,7.53
2019-02-15T14:51:16.959Z,8.83
2019-02-15T14:53:45.754Z,8.60
2019-02-15T14:56:14.506Z,8.77
2019-02-15T14:58:43.218Z,9.43
2019-02-15T15:01:15.027Z,9.93
2019-02-15T15:03:43.750Z,9.67
2019-02-15T15:06:12.508Z,9.63
2019-02-15T15:08:41.314Z,10.10
2019-02-15T15:11:10.054Z,9.60
2019-02-15T15:13:38.882Z,9.90
2019-02-15T15:16:07.703Z,9.03
2019-02-15T15:18:36.451Z,9.53
2019-02-15T15:21:05.255Z,9.53
2019-02-15T15:23:34.059Z,9.47
2019-02-15T15:26:11.534Z,9.17
2019-02-15T15:28:34.534Z,8.83
2019-02-15T15:31:03.459Z,8.77
2019-02-15T15:33:32.319Z,8.50
2019-02-15T15:36:01.066Z,8.40
2019-02-15T15:38:29.888Z,8.90
2019-02-15T15:40:58.618Z,8.83
2019-02-15T15:43:27.409Z,8.77
2019-02-15T15:45:56.326Z,9.13
2019-02-15T15:48:25.052Z,8.93
2019-02-15T15:50:54.835Z,8.47
2019-02-15T15:53:23.605Z,11.50
2019-02-15T15:55:52.368Z,8.60
2019-02-15T15:58:21.146Z,8.47
2019-02-15T16:00:49.961Z,8.97
2019-02-15T16:03:18.723Z,7.93
2019-02-15T16:05:48.734Z,8.63
2019-02-15T16:08:19.060Z,8.97
2019-02-15T16:10:48.253Z,8.73
2019-02-15T16:13:17.152Z,9.30
2019-02-15T16:15:46.171Z,8.63
2019-02-15T16:18:14.980Z,9.17
2019-02-15T16:20:44.246Z,9.67
2019-02-15T16:23:13.059Z,8.67
2019-02-15T16:25:41.980Z,9.13
2019-02-15T16:28:11.164Z,9.30
2019-02-15T16:30:40.194Z,9.70
2019-02-15T16:33:10.481Z,10.40
2019-02-15T16:35:39.574Z,9.97
2019-02-15T16:40:38.484Z,8.63
2019-02-15T16:43:07.227Z,9.37
2019-02-15T16:45:35.934Z,8.97
2019-02-15T16:48:04.839Z,9.10
2019-02-15T16:50:33.602Z,9.23
2019-02-15T16:53:02.382Z,9.90
2019-02-15T16:55:31.151Z,9.83
2019-02-15T16:57:59.892Z,9.03
2019-02-15T17:00:31.685Z,9.87
2019-02-15T17:03:00.539Z,10.50
2019-02-15T17:05:29.364Z,10.23
2019-02-15T17:07:58.122Z,10.37
2019-02-15T17:10:26.954Z,11.37
2019-02-15T17:12:55.726Z,12.40
2019-02-15T17:15:24.549Z,14.07
2019-02-15T17:17:53.846Z,23.37
2019-02-15T17:20:52.693Z,26.23
2019-02-15T17:23:21.539Z,20.43
2019-02-15T17:25:50.460Z,23.13
2019-02-15T17:28:22.832Z,25.30
2019-02-15T17:30:51.674Z,27.23
2019-02-15T17:33:20.435Z,28.77
2019-02-15T17:35:49.193Z,20.97
2019-02-15T17:38:17.936Z,16.60
2019-02-15T17:40:46.666Z,13.93
2019-02-15T17:43:15.441Z,13.67
2019-02-15T17:45:44.341Z,15.00
2019-02-15T17:48:15.481Z,13.87
2019-02-15T17:51:03.520Z,13.20
2019-02-15T17:53:32.466Z,14.40
2019-02-15T17:56:01.276Z,12.67
2019-02-15T17:58:30.058Z,14.60
2019-02-15T18:00:58.866Z,12.50
2019-02-15T18:03:27.615Z,14.10
2019-02-15T18:05:56.466Z,15.17
2019-02-15T18:08:25.246Z,14.63
2019-02-15T18:10:54.012Z,18.47
2019-02-15T18:13:22.810Z,17.63
2019-02-15T18:15:51.586Z,16.30
2019-02-15T18:18:20.363Z,24.53
2019-02-15T18:20:49.186Z,28.43
2019-02-15T18:23:18.002Z,23.33
2019-02-15T18:25:46.722Z,24.23
2019-02-15T18:28:15.498Z,20.43
2019-02-15T18:30:44.211Z,18.93
2019-02-15T18:33:13.018Z,18.23
2019-02-15T18:35:43.067Z,18.47
2019-02-15T18:38:11.779Z,18.00
2019-02-15T18:40:40.614Z,20.83
2019-02-15T18:43:09.382Z,20.45
2019-02-15T18:45:38.117Z,17.45
2019-02-15T18:48:06.859Z,18.73
2019-02-15T18:50:39.818Z,17.23
2019-02-15T18:53:08.645Z,17.17
2019-02-15T18:55:37.387Z,15.90
2019-02-15T18:58:06.295Z,16.90
2019-02-15T19:00:35.091Z,13.63
2019-02-15T19:03:05.008Z,12.70
2019-02-15T19:05:33.914Z,14.37
2019-02-15T19:08:02.942Z,12.87
2019-02-15T19:10:31.715Z,13.90
2019-02-15T19:13:00.474Z,13.37
2019-02-15T19:15:29.476Z,13.65
2019-02-15T19:17:58.216Z,13.43
2019-02-15T19:20:27.263Z,12.63
2019-02-15T19:22:56.120Z,12.45
2019-02-15T19:25:25.006Z,13.45
2019-02-15T19:27:56.158Z,12.80
2019-02-15T19:30:26.014Z,12.88
2019-02-15T19:32:54.778Z,14.75
2019-02-15T19:35:36.964Z,13.85
2019-02-15T19:38:05.724Z,13.00
2019-02-15T19:40:34.547Z,12.50
2019-02-15T19:43:04.470Z,12.05
2019-02-15T19:45:33.439Z,12.05
2019-02-15T19:48:02.908Z,12.00
2019-02-15T19:50:34.537Z,12.10
2019-02-15T19:53:05.159Z,12.45
2019-02-15T19:55:34.757Z,13.25
2019-02-15T19:58:03.757Z,11.90
2019-02-15T20:00:32.505Z,11.75
2019-02-15T20:03:01.341Z,11.75
2019-02-15T20:05:30.095Z,12.90
2019-02-15T20:07:58.876Z,11.75
2019-02-15T20:10:27.798Z,10.20
2019-02-15T20:12:56.623Z,10.35
2019-02-15T20:15:25.448Z,10.85
2019-02-15T20:17:54.431Z,12.13
2019-02-15T20:20:27.705Z,10.60
2019-02-15T20:22:56.582Z,10.13
2019-02-15T20:25:25.938Z,10.70
2019-02-15T20:27:54.770Z,9.55
2019-02-15T20:30:23.618Z,11.08
2019-02-15T20:32:52.450Z,10.33
2019-02-15T20:35:21.243Z,10.63
2019-02-15T20:37:52.186Z,10.50
2019-02-15T20:40:20.955Z,11.50
2019-02-15T20:42:49.960Z,11.50
2019-02-15T20:45:21.509Z,11.68
2019-02-15T20:47:50.340Z,12.65
2019-02-15T20:50:19.402Z,11.18
2019-02-15T20:52:48.154Z,12.50
2019-02-15T20:55:16.967Z,13.50
2019-02-15T20:57:45.727Z,13.93
2019-02-15T21:00:17.230Z,12.40
2019-02-15T21:02:47.630Z,12.33
2019-02-15T21:05:16.397Z,13.20
2019-02-15T21:07:45.118Z,13.83
2019-02-15T21:10:14.014Z,12.25
2019-02-15T21:12:44.409Z,13.65
2019-02-15T21:15:15.014Z,14.00
2019-02-15T21:17:43.770Z,14.83
2019-02-15T21:20:12.552Z,13.30
2019-02-15T21:22:43.015Z,13.83
2019-02-15T21:25:12.352Z,12.75
2019-02-15T21:27:41.162Z,11.90
2019-02-15T21:30:12.122Z,12.28
2019-02-15T21:32:40.844Z,11.30
2019-02-15T21:35:09.582Z,10.98
2019-02-15T21:37:38.460Z,10.65
2019-02-15T21:40:08.990Z,11.22
2019-02-15T21:42:37.758Z,11.45
2019-02-15T21:45:08.143Z,12.13
2019-02-15T21:47:37.060Z,11.65
2019-02-15T21:50:05.994Z,10.72
2019-02-15T21:52:43.549Z,11.45
2019-02-15T21:55:05.611Z,10.95
2019-02-15T21:57:34.530Z,9.73
2019-02-15T22:00:17.233Z,11.48
2019-02-15T22:02:46.004Z,10.35
2019-02-15T22:05:14.913Z,10.50
2019-02-15T22:07:43.770Z,10.45
2019-02-15T22:10:12.579Z,10.23
2019-02-15T22:12:41.407Z,10.65
2019-02-15T22:15:11.322Z,10.93
2019-02-15T22:17:40.156Z,10.30
2019-02-15T22:20:10.186Z,10.38
2019-02-15T22:22:38.946Z,12.18
2019-02-15T22:25:07.728Z,10.72
2019-02-15T22:27:36.486Z,11.10
2019-02-15T22:30:06.363Z,12.18
2019-02-15T22:32:35.198Z,12.05
2019-02-15T22:35:03.938Z,11.30
2019-02-15T22:37:32.883Z,11.48
2019-02-15T22:40:27.414Z,11.43
2019-02-15T22:42:56.757Z,10.95
2019-02-15T22:45:25.589Z,10.95
2019-02-15T22:47:54.334Z,10.98
2019-02-15T22:50:23.125Z,10.55
2019-02-15T22:52:51.893Z,12.13
2019-02-15T22:55:20.610Z,11.12
2019-02-15T22:57:49.369Z,10.55
2019-02-15T23:00:25.294Z,10.25
2019-02-15T23:02:54.183Z,10.45
2019-02-15T23:05:22.988Z,10.58
2019-02-15T23:07:51.812Z,11.28
2019-02-15T23:10:20.539Z,10.85
2019-02-15T23:12:49.328Z,11.38
2019-02-15T23:15:18.222Z,10.93
2019-02-15T23:17:47.043Z,10.72
2019-02-15T23:20:18.744Z,10.85
2019-02-15T23:22:47.497Z,10.15
2019-02-15T23:25:16.407Z,10.70
2019-02-15T23:27:45.134Z,10.85
2019-02-15T23:30:13.978Z,10.63
2019-02-15T23:32:42.741Z,10.78
2019-02-15T23:35:11.925Z,10.90
2019-02-15T23:37:40.739Z,10.38
2019-02-15T23:40:09.504Z,11.48
2019-02-15T23:42:38.270Z,10.08
2019-02-15T23:45:09.133Z,11.97
2019-02-15T23:47:37.864Z,11.45
2019-02-15T23:50:07.380Z,10.98
2019-02-15T23:52:36.146Z,11.90
2019-02-15T23:55:04.986Z,11.80
2019-02-15T23:57:33.743Z,12.00
